Terminal Aerodrome Forecast
Issued by NWS

Home | Current Version | Previous Version | Text Only | Print | Product List | Glossary On
Versions: 1 2 3 4 5 6 7 8 9 10 11 12 13 14 15 16 17 18 19
000
FTUS43 KGRR 301518 AAA
TAFJXN
TAF AMD
KJXN 301518Z 3015/3112 10013G23KT 6SM -RA OVC008
     FM301800 10014KT 3SM -SHRA VCTS OVC010CB
     FM302100 10014KT 3SM -SHRA VCTS OVC003CB=

USA.gov is the U.S. government's official web portal to all federal, state and local government web resources and services.